Time;durP1;ratioP1;P1;durP2;ratioP2;P2;SDS_P1;SDS_P2;PMS_P1;PMS_P2;Temp;Humidity;BMP_temperature;BMP_pressure;BME280_temperature;BME280_humidity;BME280_pressure;Samples;Min_cycle;Max_cycle;Signal;HPM_P1;HPM_P2
2023/09/06 00:02:06;;;;;;;18.40;5.10;;;;;;;18.82;48.19;99755.00;67858;1277;1016655;-63
2023/09/06 00:05:09;;;;;;;19.40;5.80;;;;;;;18.82;48.02;99753.58;67860;1277;1016180;-62
2023/09/06 00:08:13;;;;;;;17.60;5.20;;;;;;;18.85;47.98;99753.15;67798;1277;1016213;-62
2023/09/06 00:11:15;;;;;;;18.80;5.50;;;;;;;18.89;48.03;99753.06;67835;1277;1016430;-62
2023/09/06 00:14:19;;;;;;;13.40;4.30;;;;;;;18.85;47.99;99754.77;67820;1277;1016395;-61
2023/09/06 00:17:22;;;;;;;18.80;5.10;;;;;;;18.67;47.74;99753.73;67824;1277;1016851;-62
2023/09/06 00:20:25;;;;;;;15.90;4.70;;;;;;;18.50;48.14;99745.46;67858;1277;1016654;-62
2023/09/06 00:23:27;;;;;;;15.90;5.00;;;;;;;18.53;48.20;99744.52;67807;1278;1016407;-62
2023/09/06 00:26:30;;;;;;;17.90;5.50;;;;;;;18.52;48.08;99750.45;67828;1277;1016299;-63
2023/09/06 00:29:33;;;;;;;17.20;5.50;;;;;;;18.40;48.39;99743.48;67798;1277;1016274;-64
2023/09/06 00:32:35;;;;;;;16.70;5.30;;;;;;;18.37;48.32;99740.83;67853;1278;1016301;-62
2023/09/06 00:35:37;;;;;;;19.70;7.00;;;;;;;18.46;48.22;99739.62;67889;1277;1016267;-62
2023/09/06 00:38:40;;;;;;;18.80;5.30;;;;;;;18.46;48.21;99738.59;67847;1277;1016432;-62
2023/09/06 00:41:42;;;;;;;17.10;5.40;;;;;;;18.44;48.25;99739.91;67837;1277;1016477;-63
2023/09/06 00:44:44;;;;;;;16.70;5.20;;;;;;;18.29;48.14;99744.87;67781;1278;1016130;-62
2023/09/06 00:47:47;;;;;;;19.80;5.60;;;;;;;18.07;48.53;99746.34;67865;1277;1016175;-62
2023/09/06 00:50:50;;;;;;;20.40;5.80;;;;;;;17.92;48.68;99748.19;67868;1277;1016343;-63
2023/09/06 00:53:53;;;;;;;19.00;5.50;;;;;;;17.87;48.80;99749.81;67862;1277;1016500;-61
2023/09/06 00:56:55;;;;;;;19.00;5.50;;;;;;;17.80;49.06;99752.30;67798;1277;1016586;-62
2023/09/06 00:59:59;;;;;;;17.80;5.50;;;;;;;17.88;48.79;99755.59;67857;1277;1016428;-62
2023/09/06 01:03:04;;;;;;;16.50;5.00;;;;;;;17.92;48.59;99754.94;67853;1277;1016768;-62
2023/09/06 01:06:06;;;;;;;17.10;5.20;;;;;;;18.00;48.63;99748.69;67788;1277;1016493;-62
2023/09/06 01:09:09;;;;;;;21.40;6.50;;;;;;;18.07;48.75;99752.79;67843;1277;1016395;-62
2023/09/06 01:12:12;;;;;;;19.10;5.60;;;;;;;18.05;48.92;99754.52;67851;1277;1018736;-62
2023/09/06 01:15:14;;;;;;;18.90;5.80;;;;;;;18.05;48.64;99755.92;67827;1277;1016173;-63
2023/09/06 01:18:17;;;;;;;22.10;6.00;;;;;;;18.04;48.73;99755.08;67807;1277;1016384;-62
2023/09/06 01:21:19;;;;;;;19.50;5.80;;;;;;;18.21;48.43;99752.00;67816;1277;1016490;-61
2023/09/06 01:24:21;;;;;;;20.40;6.00;;;;;;;18.15;48.28;99750.39;67819;1277;1016949;-62
2023/09/06 01:27:24;;;;;;;19.10;5.30;;;;;;;17.95;48.40;99746.60;67866;1277;1016239;-62
2023/09/06 01:30:26;;;;;;;19.80;6.00;;;;;;;17.93;48.53;99745.81;67826;1277;1016930;-62
2023/09/06 01:33:29;;;;;;;21.30;6.30;;;;;;;18.01;48.38;99748.05;67837;1277;1016192;-62
2023/09/06 01:36:31;;;;;;;18.40;5.90;;;;;;;18.00;48.36;99747.84;67783;1277;1016525;-62
2023/09/06 01:39:33;;;;;;;17.90;5.70;;;;;;;17.93;48.23;99746.02;67884;1277;1017647;-62
2023/09/06 01:42:36;;;;;;;18.90;5.30;;;;;;;17.96;48.06;99742.09;67871;1277;1016310;-63
2023/09/06 01:45:38;;;;;;;20.00;6.20;;;;;;;17.80;48.23;99734.63;67870;1277;1016345;-62
2023/09/06 01:48:40;;;;;;;18.60;6.30;;;;;;;17.67;48.61;99731.22;67844;1277;1016367;-62
2023/09/06 01:51:43;;;;;;;23.30;8.20;;;;;;;17.69;48.81;99727.15;67832;1277;1016826;-62
2023/09/06 01:54:46;;;;;;;17.80;5.40;;;;;;;17.62;48.84;99726.73;67849;1277;1016418;-62
2023/09/06 01:57:48;;;;;;;23.70;7.90;;;;;;;17.60;48.68;99728.55;67850;1277;1016440;-62
2023/09/06 02:00:53;;;;;;;22.60;6.80;;;;;;;17.58;48.67;99720.15;67820;1277;1016677;-62
2023/09/06 02:03:55;;;;;;;24.00;6.70;;;;;;;17.64;48.67;99718.14;67827;1277;1016425;-62
2023/09/06 02:06:57;;;;;;;21.10;6.80;;;;;;;17.60;48.64;99719.34;67870;1277;1016392;-62
2023/09/06 02:10:00;;;;;;;23.10;8.00;;;;;;;17.61;48.71;99717.52;67881;1277;1016817;-62
2023/09/06 02:13:02;;;;;;;20.20;8.00;;;;;;;17.55;48.63;99723.06;67880;1277;1017180;-61
2023/09/06 02:16:06;;;;;;;17.70;6.40;;;;;;;17.49;48.53;99726.88;67813;1277;1016107;-62
2023/09/06 02:19:09;;;;;;;17.90;5.50;;;;;;;17.47;48.71;99732.50;67823;1277;1016682;-62
2023/09/06 02:22:11;;;;;;;19.80;6.00;;;;;;;17.40;48.80;99733.38;67808;1277;1016472;-62
2023/09/06 02:25:14;;;;;;;;;;;;;;;17.34;48.98;99736.45;67832;1277;1017056;-62
2023/09/06 02:28:17;;;;;;;18.40;5.70;;;;;;;17.21;49.20;99742.20;67836;1277;1017136;-62
2023/09/06 02:31:19;;;;;;;18.90;5.90;;;;;;;17.22;49.06;99738.90;67819;1277;1016279;-62
2023/09/06 02:34:22;;;;;;;19.20;5.60;;;;;;;17.35;48.89;99733.91;67830;1277;1016345;-62
2023/09/06 02:37:24;;;;;;;19.70;5.40;;;;;;;17.30;48.94;99727.76;67866;1277;1016075;-62
2023/09/06 02:40:27;;;;;;;20.80;6.50;;;;;;;17.33;48.94;99727.52;67838;1277;1016486;-62
2023/09/06 02:43:29;;;;;;;20.10;5.60;;;;;;;17.26;49.20;99729.65;67819;1277;1016973;-62
2023/09/06 02:46:33;;;;;;;21.50;6.70;;;;;;;17.34;48.92;99730.85;67830;1277;1016498;-62
2023/09/06 02:49:38;;;;;;;23.60;7.10;;;;;;;17.25;48.99;99729.94;67841;1277;1016381;-62
2023/09/06 02:52:44;;;;;;;18.70;5.30;;;;;;;17.25;49.08;99728.84;67814;1277;1016358;-63
2023/09/06 02:55:47;;;;;;;19.10;5.30;;;;;;;17.21;48.85;99737.58;67817;1277;1016144;-62
2023/09/06 02:58:50;;;;;;;19.00;5.40;;;;;;;17.13;48.97;99743.87;67857;1277;1016696;-62
2023/09/06 03:01:53;;;;;;;20.80;5.70;;;;;;;16.98;49.19;99744.21;67835;1277;1016380;-62
2023/09/06 03:05:03;;;;;;;18.70;5.90;;;;;;;16.90;49.41;99747.63;67820;1277;1016272;-63
2023/09/06 03:08:06;;;;;;;17.20;5.30;;;;;;;16.91;49.35;99746.64;67853;1277;1017052;-62
2023/09/06 03:11:09;;;;;;;18.20;5.70;;;;;;;16.93;49.32;99749.73;67847;1277;1016478;-62
2023/09/06 03:14:12;;;;;;;17.90;5.30;;;;;;;16.96;49.35;99750.70;67829;1277;1016609;-62
2023/09/06 03:17:18;;;;;;;17.70;5.60;;;;;;;17.01;49.52;99747.01;67803;1277;1016355;-62
2023/09/06 03:20:32;;;;;;;18.50;5.80;;;;;;;17.04;49.48;99747.32;67860;1277;1016088;-62
2023/09/06 03:23:34;;;;;;;21.90;5.80;;;;;;;17.00;49.62;99745.69;67885;1277;1016440;-62
2023/09/06 03:26:36;;;;;;;18.10;5.60;;;;;;;16.97;49.44;99745.36;67851;1277;1016326;-62
2023/09/06 03:29:39;;;;;;;18.70;5.10;;;;;;;16.85;49.40;99746.77;67869;1277;1016513;-62
2023/09/06 03:32:42;;;;;;;16.50;5.20;;;;;;;16.80;49.48;99749.40;67840;1277;1016315;-62
2023/09/06 03:35:45;;;;;;;18.30;5.50;;;;;;;16.67;49.48;99748.20;67856;1277;1016448;-62
2023/09/06 03:38:47;;;;;;;15.60;5.10;;;;;;;16.59;49.58;99757.27;67857;1277;1016399;-63
2023/09/06 03:41:49;;;;;;;21.70;6.90;;;;;;;16.58;49.79;99754.64;67844;1277;1016572;-63
2023/09/06 03:44:52;;;;;;;22.50;7.40;;;;;;;16.62;49.89;99752.78;67815;1277;1018637;-63
2023/09/06 03:47:54;;;;;;;24.00;7.30;;;;;;;16.64;49.91;99749.51;67837;1277;1017922;-63
2023/09/06 03:50:57;;;;;;;;;;;;;;;16.74;49.98;99747.00;67874;1277;1016039;-63
2023/09/06 03:54:00;;;;;;;25.00;7.50;;;;;;;16.78;49.71;99750.20;67853;1277;1016429;-63
2023/09/06 03:57:03;;;;;;;22.20;6.60;;;;;;;16.83;49.35;99752.02;67894;1277;1016428;-62
2023/09/06 04:03:22;;;;;;;18.20;5.80;;;;;;;16.73;49.59;99758.52;67861;1277;1016483;-63
2023/09/06 04:06:28;;;;;;;19.80;5.70;;;;;;;16.73;49.66;99760.34;67845;1277;1018849;-63
2023/09/06 04:09:37;;;;;;;20.50;5.50;;;;;;;16.66;49.84;99762.58;67860;1277;1017092;-62
2023/09/06 04:12:39;;;;;;;18.30;5.10;;;;;;;16.76;49.78;99765.75;67850;1277;1016532;-62
2023/09/06 04:15:42;;;;;;;20.00;5.20;;;;;;;16.77;49.63;99767.96;67821;1277;1016251;-63
2023/09/06 04:18:45;;;;;;;17.00;5.20;;;;;;;16.75;49.72;99770.56;67839;1277;1016360;-63
2023/09/06 04:21:47;;;;;;;20.30;5.50;;;;;;;16.90;49.34;99771.27;67846;1277;1016370;-63
2023/09/06 04:24:50;;;;;;;;;;;;;;;16.90;49.51;99775.56;67808;1277;1017254;-63
2023/09/06 04:27:54;;;;;;;19.80;5.00;;;;;;;16.87;49.52;99776.84;67836;1277;1016511;-63
2023/09/06 04:30:57;;;;;;;17.10;4.90;;;;;;;17.00;49.45;99771.66;67872;1277;1016151;-63
2023/09/06 04:34:00;;;;;;;24.40;7.20;;;;;;;17.07;49.56;99771.70;67797;1277;1016221;-63
2023/09/06 04:37:02;;;;;;;27.40;6.60;;;;;;;17.18;49.58;99766.28;67765;1277;1016472;-62
2023/09/06 04:40:07;;;;;;;24.40;7.60;;;;;;;17.32;49.58;99764.89;67847;1277;1016406;-63
2023/09/06 04:43:09;;;;;;;26.10;8.40;;;;;;;17.50;49.53;99764.24;67873;1277;1016534;-62
2023/09/06 04:46:12;;;;;;;21.10;6.30;;;;;;;17.64;49.63;99766.73;67861;1277;1016465;-63
2023/09/06 04:49:14;;;;;;;19.30;5.60;;;;;;;17.90;49.34;99762.16;67827;1277;1016466;-62
2023/09/06 04:52:17;;;;;;;;;;;;;;;18.09;49.03;99759.87;67888;1277;1016012;-62
2023/09/06 04:55:19;;;;;;;21.00;5.40;;;;;;;18.12;49.06;99763.01;67851;1277;1016559;-62
2023/09/06 04:58:21;;;;;;;;;;;;;;;18.26;49.09;99763.14;67858;1277;1016435;-62
2023/09/06 05:01:24;;;;;;;19.80;5.60;;;;;;;18.30;49.45;99761.73;67819;1277;1016371;-62
2023/09/06 05:04:26;;;;;;;;;;;;;;;18.53;49.33;99767.19;67825;1277;1016297;-62
2023/09/06 05:07:30;;;;;;;17.60;5.50;;;;;;;18.70;49.22;99764.80;67848;1277;1016451;-62
2023/09/06 05:10:32;;;;;;;19.50;5.80;;;;;;;18.97;48.90;99760.73;67838;1277;1016354;-62
2023/09/06 05:13:35;;;;;;;29.30;8.30;;;;;;;19.28;48.55;99760.52;67839;1277;1016384;-62
2023/09/06 05:16:38;;;;;;;31.20;10.00;;;;;;;19.61;48.33;99759.94;67813;1277;1016638;-62
2023/09/06 05:19:40;;;;;;;26.00;7.80;;;;;;;19.85;48.20;99763.09;67800;1277;1016436;-62
2023/09/06 05:22:43;;;;;;;21.30;6.30;;;;;;;20.10;48.18;99766.30;67864;1277;1016535;-62
2023/09/06 05:25:46;;;;;;;21.00;6.40;;;;;;;20.36;48.29;99765.23;67864;1277;1017213;-63
2023/09/06 05:28:48;;;;;;;20.00;6.20;;;;;;;20.65;48.30;99772.04;67818;1277;1016553;-62
2023/09/06 05:31:51;;;;;;;19.20;6.00;;;;;;;20.95;48.39;99773.10;67837;1277;1016390;-63
2023/09/06 05:34:53;;;;;;;18.40;5.40;;;;;;;21.17;48.80;99775.91;67874;1277;1016271;-62
2023/09/06 05:37:55;;;;;;;19.10;5.60;;;;;;;21.44;48.59;99774.95;67889;1277;1015781;-63
2023/09/06 05:40:58;;;;;;;21.80;6.20;;;;;;;21.63;48.57;99774.83;67883;1277;1016114;-63
2023/09/06 05:44:00;;;;;;;20.00;5.50;;;;;;;21.98;48.41;99775.50;67770;1277;1016138;-62
2023/09/06 05:47:02;;;;;;;20.60;6.60;;;;;;;22.30;48.19;99776.77;67802;1277;1016390;-62
2023/09/06 05:50:05;;;;;;;20.30;6.10;;;;;;;22.61;48.18;99776.32;67855;1277;1016731;-63
2023/09/06 05:53:07;;;;;;;22.50;6.60;;;;;;;22.99;47.81;99772.47;67815;1277;1017588;-62
2023/09/06 05:56:09;;;;;;;23.00;5.90;;;;;;;23.36;47.88;99775.48;67871;1277;1015760;-62
2023/09/06 05:59:14;;;;;;;19.80;6.10;;;;;;;23.65;47.80;99772.08;67801;1277;1016220;-62
2023/09/06 06:02:16;;;;;;;22.10;6.20;;;;;;;23.86;47.86;99772.68;67823;1277;1016390;-62
2023/09/06 06:05:19;;;;;;;;;;;;;;;24.11;47.70;99776.16;67809;1277;1016452;-61
2023/09/06 06:08:21;;;;;;;20.30;6.60;;;;;;;24.21;47.86;99771.36;67738;1277;1016362;-62
2023/09/06 06:11:24;;;;;;;;;;;;;;;24.59;47.72;99774.14;67877;1277;1016370;-62
2023/09/06 06:14:28;;;;;;;;;;;;;;;24.92;47.25;99781.41;67804;1277;1016314;-62
2023/09/06 06:17:30;;;;;;;23.30;7.40;;;;;;;25.14;46.98;99791.02;67846;1277;1016097;-62
2023/09/06 06:20:32;;;;;;;;;;;;;;;25.33;46.82;99789.34;67824;1277;1016346;-62
2023/09/06 06:23:35;;;;;;;23.20;9.30;;;;;;;25.68;46.83;99787.52;67819;1277;1016623;-63
2023/09/06 06:26:37;;;;;;;;;;;;;;;26.16;46.49;99785.88;67874;1277;1016469;-62
2023/09/06 06:29:40;;;;;;;21.60;8.10;;;;;;;26.65;46.11;99781.88;67876;1277;1018305;-61
2023/09/06 06:32:42;;;;;;;19.90;6.50;;;;;;;26.93;45.59;99775.16;67850;1277;1016783;-62
2023/09/06 06:35:45;;;;;;;;;;;;;;;26.99;45.73;99773.05;67818;1277;1018202;-63
2023/09/06 06:38:47;;;;;;;22.40;6.70;;;;;;;27.28;45.84;99771.28;67854;1277;1016412;-62
2023/09/06 06:41:50;;;;;;;;;;;;;;;27.58;45.26;99774.41;67888;1277;1016369;-62
2023/09/06 06:44:53;;;;;;;20.70;6.50;;;;;;;27.79;44.57;99775.07;67754;1277;1016458;-63
2023/09/06 06:47:56;;;;;;;20.20;6.70;;;;;;;27.84;44.14;99775.19;67875;1277;1016551;-63
2023/09/06 06:50:58;;;;;;;20.60;6.40;;;;;;;28.16;43.98;99773.85;67854;1277;1016422;-62
2023/09/06 06:54:00;;;;;;;17.20;5.40;;;;;;;28.46;43.33;99775.67;67817;1277;1016342;-62
2023/09/06 06:57:03;;;;;;;19.10;5.60;;;;;;;28.51;43.17;99777.05;67834;1277;1016425;-63
2023/09/06 07:00:11;;;;;;;19.90;5.70;;;;;;;28.79;43.26;99779.06;67869;1277;1016396;-62
2023/09/06 07:03:13;;;;;;;20.90;5.60;;;;;;;28.87;42.09;99782.06;67847;1277;1016349;-62
2023/09/06 07:06:15;;;;;;;17.10;5.50;;;;;;;28.92;42.09;99785.70;67883;1277;1016570;-62
2023/09/06 07:09:18;;;;;;;17.30;5.10;;;;;;;29.07;41.87;99783.40;67842;1277;1016414;-63
2023/09/06 07:12:20;;;;;;;17.40;5.80;;;;;;;29.34;42.20;99789.75;67826;1277;1016480;-62
2023/09/06 07:15:23;;;;;;;19.80;5.70;;;;;;;29.60;41.82;99785.63;67809;1277;1016440;-62
2023/09/06 07:18:25;;;;;;;18.20;5.20;;;;;;;29.84;41.49;99787.80;67803;1277;1016483;-63
2023/09/06 07:21:28;;;;;;;17.70;5.30;;;;;;;29.92;40.64;99787.16;67847;1277;1016307;-62
2023/09/06 07:24:30;;;;;;;18.60;5.40;;;;;;;30.04;40.35;99785.05;67850;1277;1017652;-62
2023/09/06 07:27:33;;;;;;;19.30;5.70;;;;;;;30.27;40.49;99787.86;67835;1277;1016550;-63
2023/09/06 07:30:35;;;;;;;18.50;4.90;;;;;;;30.61;39.96;99787.73;67786;1277;1016085;-63
2023/09/06 07:33:38;;;;;;;16.20;4.80;;;;;;;30.78;39.49;99786.14;67844;1277;1016432;-62
2023/09/06 07:36:41;;;;;;;17.10;4.90;;;;;;;31.04;39.02;99783.50;67821;1277;1016472;-62
2023/09/06 07:39:43;;;;;;;16.00;4.70;;;;;;;31.23;38.73;99780.88;67814;1277;1016137;-62
2023/09/06 07:42:45;;;;;;;18.30;5.40;;;;;;;31.54;38.00;99779.64;67827;1277;1016330;-62
2023/09/06 07:45:48;;;;;;;15.40;4.90;;;;;;;31.70;37.58;99777.27;67769;1277;1016560;-63
2023/09/06 07:48:51;;;;;;;17.90;5.10;;;;;;;31.74;36.97;99775.70;67859;1277;1015724;-62
2023/09/06 07:51:53;;;;;;;17.50;5.10;;;;;;;31.82;37.04;99779.20;67827;1277;1016493;-62
2023/09/06 07:54:56;;;;;;;16.00;5.10;;;;;;;32.00;36.90;99775.77;67872;1277;1016469;-62
2023/09/06 07:57:58;;;;;;;15.30;4.70;;;;;;;32.16;36.37;99773.96;67878;1277;1016670;-62
2023/09/06 08:01:00;;;;;;;17.90;5.00;;;;;;;32.24;36.19;99775.63;67845;1277;1016394;-63
2023/09/06 08:04:03;;;;;;;12.30;4.20;;;;;;;32.35;35.89;99775.59;67837;1277;1018875;-63
2023/09/06 08:07:05;;;;;;;17.50;4.80;;;;;;;32.62;35.82;99778.60;67823;1277;1016546;-62
2023/09/06 08:10:09;;;;;;;19.30;5.30;;;;;;;32.71;35.58;99779.56;67824;1277;1016337;-62
2023/09/06 08:13:12;;;;;;;16.60;4.50;;;;;;;32.84;35.08;99778.40;67798;1277;1015716;-62
2023/09/06 08:16:14;;;;;;;14.70;4.50;;;;;;;32.93;34.59;99771.04;67863;1277;1016305;-62
2023/09/06 08:19:17;;;;;;;18.00;4.80;;;;;;;33.00;34.57;99769.58;67859;1277;1016416;-61
2023/09/06 08:22:19;;;;;;;15.40;4.80;;;;;;;33.07;34.08;99770.03;67787;1277;1016236;-61
2023/09/06 08:25:22;;;;;;;18.80;5.00;;;;;;;33.05;33.73;99773.52;67840;1277;1016455;-62
2023/09/06 08:28:24;;;;;;;17.60;4.80;;;;;;;32.99;33.72;99774.01;67857;1277;1016386;-62
2023/09/06 08:31:27;;;;;;;16.60;4.70;;;;;;;33.05;33.78;99777.81;67873;1277;1016617;-62
2023/09/06 08:34:29;;;;;;;15.50;4.70;;;;;;;33.12;33.72;99776.58;67844;1277;1016479;-62
2023/09/06 08:37:31;;;;;;;17.70;5.00;;;;;;;33.18;32.98;99782.14;67823;1277;1016316;-63
2023/09/06 08:40:34;;;;;;;16.10;4.80;;;;;;;33.32;33.39;99786.23;67818;1277;1016360;-62
2023/09/06 08:43:36;;;;;;;17.00;5.00;;;;;;;33.52;33.61;99786.88;67830;1277;1017104;-63
2023/09/06 08:46:39;;;;;;;16.80;5.20;;;;;;;33.62;32.95;99788.79;67867;1277;1015950;-62
2023/09/06 08:49:41;;;;;;;16.60;5.00;;;;;;;33.83;32.46;99780.61;67888;1277;1016352;-62
2023/09/06 08:52:44;;;;;;;19.90;5.30;;;;;;;33.74;32.30;99785.48;67811;1277;1016631;-63
2023/09/06 08:55:46;;;;;;;16.50;5.00;;;;;;;33.87;32.29;99787.17;67833;1277;1020023;-63
2023/09/06 08:58:48;;;;;;;15.20;4.60;;;;;;;33.99;31.71;99788.75;67868;1277;1015959;-62
2023/09/06 09:01:51;;;;;;;17.90;5.30;;;;;;;33.86;31.64;99783.89;67883;1277;1016336;-62
2023/09/06 09:04:54;;;;;;;16.30;5.00;;;;;;;33.99;32.09;99785.24;67828;1277;1016221;-63
2023/09/06 09:07:56;;;;;;;16.00;5.20;;;;;;;34.10;31.75;99782.79;67801;1277;1016282;-63
2023/09/06 09:10:59;;;;;;;16.90;5.10;;;;;;;34.15;31.60;99781.27;67843;1277;1016352;-63
2023/09/06 09:14:01;;;;;;;19.10;5.10;;;;;;;34.31;31.41;99776.52;67881;1277;1016417;-63
2023/09/06 09:17:04;;;;;;;19.60;5.00;;;;;;;34.33;30.55;99781.10;67839;1277;1017418;-62
2023/09/06 09:20:07;;;;;;;19.90;5.90;;;;;;;34.34;30.21;99778.08;67831;1277;1016929;-63
2023/09/06 09:23:09;;;;;;;17.70;5.20;;;;;;;34.17;31.19;99780.58;67850;1277;1016876;-63
2023/09/06 09:26:11;;;;;;;16.20;5.00;;;;;;;34.46;30.25;99783.59;67857;1277;1018281;-62
2023/09/06 09:29:14;;;;;;;16.80;5.00;;;;;;;34.59;29.56;99785.45;67828;1277;1016452;-62
2023/09/06 09:32:16;;;;;;;15.60;5.00;;;;;;;34.59;29.72;99786.38;67851;1277;1016404;-63
2023/09/06 09:35:18;;;;;;;17.00;4.70;;;;;;;34.69;29.54;99789.66;67815;1277;1016262;-63
2023/09/06 09:38:21;;;;;;;14.20;4.80;;;;;;;34.80;29.42;99790.85;67828;1277;1018134;-62
2023/09/06 09:41:23;;;;;;;16.20;4.70;;;;;;;34.96;29.79;99787.69;67864;1277;1016077;-62
2023/09/06 09:44:25;;;;;;;16.00;4.80;;;;;;;35.05;29.41;99787.44;67873;1277;1016233;-63
2023/09/06 09:47:28;;;;;;;16.70;5.10;;;;;;;35.08;29.14;99790.87;67826;1277;1016464;-63
2023/09/06 09:50:30;;;;;;;16.60;4.80;;;;;;;35.29;28.82;99794.95;67808;1277;1016785;-63
2023/09/06 09:53:33;;;;;;;16.50;5.00;;;;;;;35.16;28.63;99791.23;67877;1277;1016405;-63
2023/09/06 09:56:36;;;;;;;16.50;4.90;;;;;;;35.14;28.26;99792.00;67864;1277;1016700;-62
2023/09/06 09:59:39;;;;;;;18.40;5.20;;;;;;;35.16;28.92;99793.73;67826;1277;1016183;-63
2023/09/06 10:02:41;;;;;;;15.70;4.90;;;;;;;35.36;28.95;99797.96;67854;1277;1017151;-63
2023/09/06 10:05:43;;;;;;;14.70;4.90;;;;;;;35.52;28.30;99799.18;67848;1277;1017397;-63
2023/09/06 10:08:46;;;;;;;19.40;5.40;;;;;;;35.68;28.47;99801.95;67843;1277;1016210;-63
2023/09/06 10:11:48;;;;;;;16.00;5.00;;;;;;;35.73;28.33;99804.33;67826;1277;1016769;-63
2023/09/06 10:14:51;;;;;;;16.50;4.80;;;;;;;35.78;28.23;99805.52;67819;1277;1016486;-62
2023/09/06 10:17:54;;;;;;;16.40;4.70;;;;;;;35.79;27.48;99803.50;67869;1277;1016512;-62
2023/09/06 10:20:56;;;;;;;15.20;4.60;;;;;;;35.74;27.54;99805.17;67830;1277;1016141;-62
2023/09/06 10:23:58;;;;;;;14.70;4.30;;;;;;;35.80;27.30;99798.49;67788;1277;1016191;-62
2023/09/06 10:27:01;;;;;;;15.60;4.50;;;;;;;35.84;27.64;99800.52;67833;1277;1016194;-62
2023/09/06 10:30:04;;;;;;;16.00;4.40;;;;;;;36.12;26.93;99792.38;67822;1277;1016203;-63
2023/09/06 10:33:08;;;;;;;14.20;4.30;;;;;;;36.13;27.20;99792.40;67732;1277;1015846;-63
2023/09/06 10:36:10;;;;;;;14.70;4.40;;;;;;;36.09;27.19;99787.08;67813;1277;1016506;-63
2023/09/06 10:39:14;;;;;;;16.30;4.60;;;;;;;35.91;26.99;99793.47;67772;1277;1016481;-62
2023/09/06 10:42:16;;;;;;;16.00;4.50;;;;;;;35.94;26.72;99792.89;67822;1277;1016616;-63
2023/09/06 10:45:19;;;;;;;16.30;4.30;;;;;;;36.20;26.92;99787.02;67770;1277;1016432;-63
2023/09/06 10:48:22;;;;;;;15.60;4.50;;;;;;;36.34;26.87;99787.42;67877;1277;1016444;-62
2023/09/06 10:51:24;;;;;;;15.30;4.50;;;;;;;36.39;26.22;99787.20;67855;1277;1015887;-63
2023/09/06 10:54:27;;;;;;;15.40;4.50;;;;;;;36.59;26.26;99785.66;67812;1277;1016449;-62
2023/09/06 10:57:29;;;;;;;15.70;4.70;;;;;;;36.79;26.22;99782.72;67815;1277;1016180;-63
2023/09/06 11:00:31;;;;;;;13.70;4.70;;;;;;;36.90;26.27;99784.65;67811;1277;1015804;-62
2023/09/06 11:03:34;;;;;;;16.30;5.00;;;;;;;37.08;25.85;99778.19;67866;1277;1015986;-63
2023/09/06 11:06:36;;;;;;;16.20;4.40;;;;;;;36.99;25.13;99780.27;67851;1277;1015982;-62
2023/09/06 11:09:43;;;;;;;17.80;4.80;;;;;;;36.86;26.02;99784.84;67818;1277;1016159;-63
2023/09/06 11:12:45;;;;;;;15.80;4.70;;;;;;;36.90;25.66;99787.38;67862;1277;1016909;-63
2023/09/06 11:15:48;;;;;;;12.70;4.20;;;;;;;36.81;25.20;99782.50;67882;1277;1016498;-63
2023/09/06 11:18:50;;;;;;;15.30;4.10;;;;;;;36.71;25.18;99784.20;67849;1277;1016524;-63
2023/09/06 11:21:53;;;;;;;13.40;4.30;;;;;;;36.78;25.42;99783.63;67793;1277;1016438;-62
2023/09/06 11:24:55;;;;;;;15.80;4.40;;;;;;;36.88;25.51;99784.06;67841;1277;1016758;-62
2023/09/06 11:27:58;;;;;;;15.50;4.70;;;;;;;37.09;25.61;99783.52;67865;1277;1016513;-63
2023/09/06 11:31:04;;;;;;;16.20;4.50;;;;;;;37.28;25.41;99782.45;67795;1277;1016446;-62
2023/09/06 11:34:09;;;;;;;17.30;4.70;;;;;;;37.24;24.35;99776.96;67823;1277;1017186;-63
2023/09/06 11:37:12;;;;;;;14.40;4.40;;;;;;;37.11;25.13;99776.12;67822;1277;1017894;-62
2023/09/06 11:40:15;;;;;;;14.70;5.20;;;;;;;36.86;24.72;99770.40;67865;1277;1016341;-63
2023/09/06 11:43:19;;;;;;;14.10;4.40;;;;;;;36.32;25.12;99770.09;67831;1277;1016242;-63
2023/09/06 11:46:22;;;;;;;13.50;4.40;;;;;;;36.24;25.42;99768.73;67884;1277;1018567;-63
2023/09/06 11:49:25;;;;;;;16.40;4.60;;;;;;;36.52;25.51;99767.64;67900;1277;1016203;-62
2023/09/06 11:52:29;;;;;;;13.00;4.10;;;;;;;37.00;25.05;99765.01;67815;1277;1016393;-63
2023/09/06 11:55:32;;;;;;;13.60;4.70;;;;;;;37.13;24.92;99767.73;67827;1277;1016420;-63
2023/09/06 11:58:36;;;;;;;14.10;4.40;;;;;;;37.17;24.79;99765.95;67877;1277;1016069;-63
2023/09/06 12:01:40;;;;;;;13.20;4.30;;;;;;;37.31;23.99;99762.16;67846;1277;1016802;-63
2023/09/06 12:04:42;;;;;;;13.90;4.30;;;;;;;37.47;23.72;99756.58;67864;1277;1016456;-63
2023/09/06 12:07:45;;;;;;;13.90;4.60;;;;;;;37.22;24.22;99754.45;67853;1277;1016663;-63
2023/09/06 12:10:50;;;;;;;14.50;4.70;;;;;;;37.38;24.56;99754.41;67803;1277;1016664;-63
2023/09/06 12:13:54;;;;;;;18.10;4.70;;;;;;;37.41;23.92;99748.66;67887;1277;1017819;-63
2023/09/06 12:16:56;;;;;;;14.80;4.70;;;;;;;37.31;24.46;99749.54;67872;1277;1017326;-63
2023/09/06 12:19:59;;;;;;;17.00;4.50;;;;;;;37.44;24.34;99746.30;67839;1277;1016227;-63
2023/09/06 12:23:03;;;;;;;14.10;4.30;;;;;;;37.65;24.11;99748.44;67873;1277;1016308;-63
2023/09/06 12:26:06;;;;;;;13.90;4.50;;;;;;;37.80;24.26;99749.69;67865;1277;1016291;-63
2023/09/06 12:29:09;;;;;;;12.70;4.40;;;;;;;37.77;23.61;99746.84;67871;1277;1017054;-63
2023/09/06 12:32:11;;;;;;;15.60;4.40;;;;;;;38.06;23.92;99744.29;67825;1277;1016485;-63
2023/09/06 12:35:13;;;;;;;12.90;4.30;;;;;;;38.24;24.06;99743.89;67808;1277;1016527;-63
2023/09/06 12:38:16;;;;;;;14.40;4.40;;;;;;;38.37;23.70;99737.65;67814;1277;1016454;-62
2023/09/06 12:41:18;;;;;;;14.00;4.80;;;;;;;38.31;23.71;99738.14;67881;1277;1016400;-63
2023/09/06 12:44:20;;;;;;;12.80;4.30;;;;;;;38.28;24.37;99741.88;67841;1277;1017315;-63
2023/09/06 12:47:23;;;;;;;13.90;4.50;;;;;;;38.24;22.58;99735.12;67851;1277;1016208;-64
2023/09/06 12:50:25;;;;;;;14.10;4.20;;;;;;;37.97;22.81;99735.08;67836;1277;1017926;-63
2023/09/06 12:53:28;;;;;;;16.50;4.60;;;;;;;37.88;23.43;99726.20;67826;1278;1016728;-63
2023/09/06 12:56:30;;;;;;;13.00;4.40;;;;;;;38.06;23.34;99729.95;67883;1277;1016208;-63
2023/09/06 12:59:33;;;;;;;12.80;4.40;;;;;;;38.17;22.96;99725.77;67880;1277;1016295;-63
2023/09/06 13:02:35;;;;;;;14.60;4.30;;;;;;;38.09;22.67;99720.63;67838;1277;1016221;-63
2023/09/06 13:05:37;;;;;;;14.50;4.30;;;;;;;38.16;23.18;99720.11;67825;1277;1016424;-64
2023/09/06 13:08:41;;;;;;;15.30;4.60;;;;;;;38.10;22.84;99717.46;67836;1277;1016336;-63
2023/09/06 13:11:44;;;;;;;14.90;4.30;;;;;;;38.01;23.08;99714.92;67835;1277;1016685;-63
2023/09/06 13:14:46;;;;;;;13.40;4.20;;;;;;;37.95;23.48;99712.61;67810;1277;1016135;-63
2023/09/06 13:17:48;;;;;;;14.30;4.50;;;;;;;37.96;23.39;99711.58;67869;1277;1016516;-63
2023/09/06 13:20:51;;;;;;;12.20;4.30;;;;;;;38.14;23.27;99708.87;67831;1277;1016781;-63
2023/09/06 13:23:53;;;;;;;13.10;4.20;;;;;;;38.32;23.00;99702.70;67892;1277;1016380;-63
2023/09/06 13:26:55;;;;;;;14.20;4.50;;;;;;;38.28;23.30;99705.77;67831;1277;1016507;-63
2023/09/06 13:29:58;;;;;;;14.30;4.60;;;;;;;38.34;23.75;99706.38;67802;1277;1016629;-63
2023/09/06 13:33:00;;;;;;;14.00;4.50;;;;;;;38.48;23.34;99702.49;67808;1277;1016226;-63
2023/09/06 13:36:04;;;;;;;15.70;4.90;;;;;;;38.45;23.51;99702.73;67873;1277;1017760;-63
2023/09/06 13:39:07;;;;;;;14.80;4.60;;;;;;;38.56;23.56;99700.45;67820;1277;1016500;-63
2023/09/06 13:42:09;;;;;;;14.00;4.90;;;;;;;38.78;23.36;99697.95;67850;1277;1016326;-63
2023/09/06 13:45:12;;;;;;;14.80;4.20;;;;;;;38.87;23.36;99695.58;67830;1277;1016351;-63
2023/09/06 13:48:15;;;;;;;13.30;4.40;;;;;;;38.84;23.35;99697.95;67790;1277;1016526;-63
2023/09/06 13:51:17;;;;;;;15.30;4.70;;;;;;;38.88;22.80;99697.02;67822;1277;1016564;-63
2023/09/06 13:54:20;;;;;;;11.80;4.20;;;;;;;38.56;22.23;99693.27;67826;1277;1016442;-63
2023/09/06 13:57:22;;;;;;;15.50;4.50;;;;;;;38.53;22.42;99691.58;67817;1277;1016284;-63